createdAt,value
2023-04-05T00:00:33.451Z,6.97
2023-04-05T00:01:37.705Z,6.53
2023-04-05T00:02:40.865Z,8.90
2023-04-05T00:03:43.547Z,5.97
2023-04-05T00:04:54.895Z,8.43
2023-04-05T00:05:57.448Z,10.50
2023-04-05T00:07:02.610Z,5.13
2023-04-05T00:08:08.373Z,8.23
2023-04-05T00:09:10.889Z,4.82
2023-04-05T00:10:13.311Z,7.70
2023-04-05T00:11:18.820Z,6.45
2023-04-05T00:12:21.629Z,7.72
2023-04-05T00:13:24.101Z,5.47
2023-04-05T00:14:26.498Z,8.82
2023-04-05T00:15:29.015Z,5.15
2023-04-05T00:16:31.618Z,7.05
2023-04-05T00:17:34.068Z,7.90
2023-04-05T00:18:38.548Z,7.03
2023-04-05T00:19:43.336Z,6.13
2023-04-05T00:20:45.822Z,5.60
2023-04-05T00:21:48.337Z,7.28
2023-04-05T00:22:53.503Z,7.25
2023-04-05T00:23:59.989Z,8.63
2023-04-05T00:25:03.581Z,6.35
2023-04-05T00:26:06.104Z,6.35
2023-04-05T00:27:08.624Z,6.28
2023-04-05T00:28:12.225Z,5.82
2023-04-05T00:29:14.743Z,5.00
2023-04-05T00:30:21.044Z,8.57
2023-04-05T00:31:23.772Z,10.13
2023-04-05T00:32:26.414Z,6.00
2023-04-05T00:33:28.905Z,7.70
2023-04-05T00:35:35.277Z,8.23
2023-04-05T00:36:37.807Z,7.47
2023-04-05T00:37:40.314Z,6.85
2023-04-05T00:38:43.801Z,6.75
2023-04-05T00:39:46.320Z,5.57
2023-04-05T00:40:48.834Z,9.93
2023-04-05T00:41:51.394Z,8.13
2023-04-05T00:42:53.886Z,7.15
2023-04-05T00:43:57.184Z,7.45
2023-04-05T00:44:59.758Z,7.72
2023-04-05T00:46:02.783Z,9.27
2023-04-05T00:47:09.116Z,6.20
2023-04-05T00:48:12.358Z,6.75
2023-04-05T00:49:15.000Z,6.25
2023-04-05T00:50:17.654Z,8.95
2023-04-05T00:51:20.639Z,4.45
2023-04-05T00:52:23.547Z,7.18
2023-04-05T00:53:30.126Z,4.93
2023-04-05T00:54:33.119Z,7.80
2023-04-05T00:55:36.605Z,9.23
2023-04-05T00:56:40.086Z,7.22
2023-04-05T00:57:45.244Z,11.10
2023-04-05T00:58:48.784Z,8.73
2023-04-05T00:59:51.971Z,8.38
2023-04-05T01:01:17.187Z,7.88
2023-04-05T01:02:40.570Z,5.82
2023-04-05T01:03:47.169Z,5.80
2023-04-05T01:05:01.092Z,7.95
2023-04-05T01:06:21.848Z,10.20
2023-04-05T01:07:33.990Z,7.15
2023-04-05T01:08:45.619Z,10.40
2023-04-05T01:09:57.378Z,5.55
2023-04-05T01:11:03.735Z,9.77
2023-04-05T01:12:09.611Z,8.98
2023-04-05T01:13:12.254Z,6.22
2023-04-05T01:14:14.903Z,6.30
2023-04-05T01:15:18.983Z,10.30
2023-04-05T01:16:21.524Z,6.15
2023-04-05T01:17:28.490Z,11.25
2023-04-05T01:18:31.210Z,8.90
2023-04-05T01:19:35.296Z,10.25
2023-04-05T01:20:45.980Z,5.93
2023-04-05T01:22:14.433Z,9.23
2023-04-05T01:23:31.372Z,5.03
2023-04-05T01:25:11.025Z,8.07
2023-04-05T01:26:39.138Z,10.23
2023-04-05T01:27:59.662Z,8.18
2023-04-05T01:29:17.898Z,5.25
2023-04-05T01:30:30.020Z,6.95
2023-04-05T01:31:42.483Z,7.75
2023-04-05T01:32:48.167Z,9.20
2023-04-05T01:34:02.302Z,7.35
2023-04-05T01:35:41.907Z,6.00
2023-04-05T01:36:50.914Z,9.23
2023-04-05T01:38:04.130Z,11.43
2023-04-05T01:39:11.786Z,9.15
2023-04-05T01:40:14.313Z,5.53
2023-04-05T01:41:16.952Z,7.18
2023-04-05T01:42:25.835Z,8.30
2023-04-05T01:43:28.852Z,7.90
2023-04-05T01:44:31.475Z,6.88
2023-04-05T01:45:33.873Z,10.93
2023-04-05T01:46:37.052Z,10.20
2023-04-05T01:47:39.684Z,6.75
2023-04-05T01:48:43.001Z,8.05
2023-04-05T01:49:45.514Z,12.05
2023-04-05T01:50:48.169Z,6.28
2023-04-05T01:51:50.916Z,5.38
2023-04-05T01:52:53.444Z,7.15
2023-04-05T01:53:56.158Z,6.10
2023-04-05T01:54:58.717Z,7.90
2023-04-05T01:56:01.836Z,7.97
2023-04-05T01:57:05.558Z,8.15
2023-04-05T01:58:09.162Z,8.45
2023-04-05T01:59:11.715Z,7.70
2023-04-05T02:00:14.332Z,8.15
2023-04-05T02:01:16.859Z,7.40
2023-04-05T02:02:19.493Z,10.43
2023-04-05T02:03:25.936Z,7.40
2023-04-05T02:04:28.847Z,7.50
2023-04-05T02:05:31.250Z,8.82
2023-04-05T02:06:33.782Z,10.00
2023-04-05T02:07:37.639Z,7.10
2023-04-05T02:08:40.131Z,8.02
2023-04-05T02:09:42.654Z,6.53
2023-04-05T02:10:46.048Z,9.82
2023-04-05T02:11:48.533Z,8.15
2023-04-05T02:12:51.420Z,7.63
2023-04-05T02:13:53.937Z,5.95
2023-04-05T02:14:56.712Z,7.07
2023-04-05T02:15:59.264Z,7.70
2023-04-05T02:17:03.334Z,7.40
2023-04-05T02:18:08.128Z,10.38
2023-04-05T02:19:11.094Z,6.10
2023-04-05T02:20:14.859Z,7.95
2023-04-05T02:21:17.339Z,7.63
2023-04-05T02:22:19.983Z,8.10
2023-04-05T02:23:22.516Z,6.55
2023-04-05T02:24:24.904Z,7.13
2023-04-05T02:25:27.420Z,7.90
2023-04-05T02:26:30.062Z,9.07
2023-04-05T02:27:33.303Z,6.53
2023-04-05T02:28:35.826Z,6.25
2023-04-05T02:29:38.228Z,7.85
2023-04-05T02:30:41.196Z,6.50
2023-04-05T02:31:46.194Z,6.57
2023-04-05T02:32:49.424Z,13.65
2023-04-05T02:33:52.029Z,8.13
2023-04-05T02:34:54.567Z,7.03
2023-04-05T02:35:58.937Z,8.55
2023-04-05T02:37:02.110Z,5.47
2023-04-05T02:38:05.719Z,8.90
2023-04-05T02:39:09.927Z,7.63
2023-04-05T02:40:16.279Z,10.32
2023-04-05T02:41:18.795Z,8.52
2023-04-05T02:42:21.329Z,7.65
2023-04-05T02:43:26.240Z,7.82
2023-04-05T02:44:28.873Z,5.88
2023-04-05T02:45:31.707Z,6.85
2023-04-05T02:46:35.353Z,7.15
2023-04-05T02:47:38.265Z,9.18
2023-04-05T02:48:40.757Z,8.07
2023-04-05T02:49:44.352Z,7.75
2023-04-05T02:50:52.876Z,9.77
2023-04-05T02:51:56.242Z,7.03
2023-04-05T02:52:59.126Z,8.85
2023-04-05T02:54:03.437Z,7.82
2023-04-05T02:55:08.131Z,7.10
2023-04-05T02:56:14.483Z,8.02
2023-04-05T02:57:20.121Z,7.00
2023-04-05T02:58:30.563Z,9.73
2023-04-05T02:59:33.098Z,7.68
2023-04-05T03:00:36.567Z,9.40
2023-04-05T03:01:44.392Z,9.35
2023-04-05T03:02:56.828Z,8.93
2023-04-05T03:03:59.694Z,6.72
2023-04-05T03:05:02.544Z,14.05
2023-04-05T03:06:10.746Z,9.63
2023-04-05T03:07:25.646Z,6.93
2023-04-05T03:08:28.937Z,10.88
2023-04-05T03:09:38.760Z,6.07
2023-04-05T03:10:48.450Z,8.98
2023-04-05T03:11:52.891Z,10.23
2023-04-05T03:12:55.529Z,8.98
2023-04-05T03:14:00.689Z,6.20
2023-04-05T03:15:12.100Z,10.02
2023-04-05T03:16:17.758Z,6.63
2023-04-05T03:17:20.531Z,10.82
2023-04-05T03:18:32.783Z,10.38
2023-04-05T03:19:41.500Z,7.15
2023-04-05T03:20:50.090Z,12.13
2023-04-05T03:21:56.380Z,8.88
2023-04-05T03:23:10.183Z,9.90
2023-04-05T03:24:12.821Z,8.40
2023-04-05T03:25:17.558Z,6.78
2023-04-05T03:26:23.389Z,9.00
2023-04-05T03:27:29.276Z,9.15
2023-04-05T03:28:45.340Z,9.63
2023-04-05T03:29:49.188Z,9.43
2023-04-05T03:30:53.993Z,8.90
2023-04-05T03:31:59.130Z,11.43
2023-04-05T03:33:03.297Z,9.02
2023-04-05T03:34:13.435Z,9.30
2023-04-05T03:35:21.135Z,6.68
2023-04-05T03:36:24.228Z,6.07
2023-04-05T03:37:28.914Z,7.65
2023-04-05T03:38:38.653Z,5.10
2023-04-05T03:39:49.915Z,5.80
2023-04-05T03:40:53.158Z,7.93
2023-04-05T03:41:56.873Z,7.47
2023-04-05T03:42:59.281Z,8.65
2023-04-05T03:44:02.658Z,8.95
2023-04-05T03:45:06.242Z,8.00
2023-04-05T03:46:08.788Z,11.18
2023-04-05T03:47:11.280Z,10.27
2023-04-05T03:48:20.153Z,11.15
2023-04-05T03:49:24.130Z,8.82
2023-04-05T03:50:26.998Z,6.70
2023-04-05T03:51:29.762Z,6.18
2023-04-05T03:52:32.160Z,11.90
2023-04-05T03:53:35.400Z,5.88
2023-04-05T03:54:37.922Z,14.15
2023-04-05T03:55:40.701Z,8.57
2023-04-05T03:56:43.440Z,8.05
2023-04-05T03:57:50.158Z,11.65
2023-04-05T03:58:58.702Z,7.30
2023-04-05T04:00:14.303Z,6.30
2023-04-05T04:01:17.285Z,9.25
2023-04-05T04:02:19.882Z,8.35
2023-04-05T04:03:22.445Z,9.70
2023-04-05T04:04:28.162Z,7.22
2023-04-05T04:05:31.457Z,11.07
2023-04-05T04:06:34.718Z,10.38
2023-04-05T04:07:38.430Z,9.45
2023-04-05T04:08:41.048Z,9.20
2023-04-05T04:09:43.698Z,12.25
2023-04-05T04:10:47.527Z,8.75
2023-04-05T04:12:11.534Z,8.02
2023-04-05T04:14:35.545Z,8.65
2023-04-05T04:15:51.145Z,9.70
2023-04-05T04:17:08.662Z,5.93
2023-04-05T04:18:39.260Z,9.00
2023-04-05T04:20:11.186Z,9.60
2023-04-05T04:21:51.999Z,7.10
2023-04-05T04:23:14.594Z,7.18
2023-04-05T04:24:32.776Z,9.07
2023-04-05T04:25:46.212Z,10.02
2023-04-05T04:27:10.745Z,8.18
2023-04-05T04:28:39.858Z,9.70
2023-04-05T04:30:08.183Z,14.77
2023-04-05T04:31:29.323Z,10.20
2023-04-05T04:32:52.372Z,10.77
2023-04-05T04:34:13.584Z,12.07
2023-04-05T04:35:30.215Z,8.07
2023-04-05T04:37:01.346Z,10.57
2023-04-05T04:38:19.230Z,7.10
2023-04-05T04:39:49.465Z,7.05
2023-04-05T04:41:10.586Z,9.73
2023-04-05T04:42:38.964Z,7.10
2023-04-05T04:44:28.364Z,11.15
2023-04-05T04:45:52.214Z,7.63
2023-04-05T04:47:02.072Z,5.13
2023-04-05T04:48:19.952Z,10.63
2023-04-05T04:49:31.602Z,12.27
2023-04-05T04:50:34.592Z,9.30
2023-04-05T04:51:40.123Z,11.77
2023-04-05T04:52:42.780Z,12.13
2023-04-05T04:53:45.400Z,8.18
2023-04-05T04:54:47.914Z,9.50
2023-04-05T04:55:50.207Z,8.90
2023-04-05T04:56:52.731Z,11.20
2023-04-05T04:57:55.718Z,9.38
2023-04-05T04:58:58.253Z,11.00
2023-04-05T05:00:00.891Z,11.05
2023-04-05T05:01:08.973Z,12.55
2023-04-05T05:02:11.804Z,12.70
2023-04-05T05:03:14.474Z,9.43
2023-04-05T05:04:16.921Z,9.32
2023-04-05T05:05:22.893Z,15.43
2023-04-05T05:06:27.360Z,7.90
2023-04-05T05:07:29.952Z,9.93
2023-04-05T05:08:32.459Z,11.50
2023-04-05T05:09:34.857Z,12.02
2023-04-05T05:10:37.948Z,10.07
2023-04-05T05:11:40.375Z,6.97
2023-04-05T05:12:45.531Z,15.93
2023-04-05T05:13:53.168Z,10.73
2023-04-05T05:14:59.443Z,11.77
2023-04-05T05:16:04.636Z,16.73
2023-04-05T05:17:08.816Z,8.30
2023-04-05T05:18:12.638Z,12.32
2023-04-05T05:19:15.297Z,7.80
2023-04-05T05:20:28.745Z,9.95
2023-04-05T05:21:31.388Z,13.27
2023-04-05T05:22:38.228Z,12.35
2023-04-05T05:23:40.983Z,11.27
2023-04-05T05:24:45.062Z,8.00
2023-04-05T05:25:47.942Z,13.18
2023-04-05T05:26:51.435Z,13.25
2023-04-05T05:27:54.903Z,9.98
2023-04-05T05:29:02.237Z,8.30
2023-04-05T05:30:07.276Z,8.00
2023-04-05T05:31:10.097Z,12.30
2023-04-05T05:32:16.024Z,15.07
2023-04-05T05:33:18.792Z,9.20
2023-04-05T05:34:22.146Z,13.00
2023-04-05T05:35:31.296Z,10.50
2023-04-05T05:36:34.878Z,10.00
2023-04-05T05:37:37.626Z,8.70
2023-04-05T05:38:40.158Z,10.20
2023-04-05T05:39:44.732Z,12.45
2023-04-05T05:40:47.233Z,12.30
2023-04-05T05:41:50.111Z,12.30
2023-04-05T05:42:52.631Z,13.68
2023-04-05T05:43:55.757Z,11.57
2023-04-05T05:45:01.996Z,11.73
2023-04-05T05:46:04.547Z,12.30
2023-04-05T05:47:07.032Z,8.40
2023-04-05T05:48:09.562Z,9.57
2023-04-05T05:49:12.208Z,12.48
2023-04-05T05:50:16.643Z,13.82
2023-04-05T05:51:19.154Z,9.25
2023-04-05T05:52:21.559Z,9.95
2023-04-05T05:53:24.084Z,11.65
2023-04-05T05:54:27.204Z,13.00
2023-04-05T05:55:29.843Z,10.98
2023-04-05T05:56:32.367Z,14.63
2023-04-05T05:57:35.033Z,11.38
2023-04-05T05:58:39.805Z,11.32
2023-04-05T05:59:42.337Z,11.55
2023-04-05T06:00:44.841Z,19.92
2023-04-05T06:01:47.254Z,11.40
2023-04-05T06:02:50.367Z,13.55
2023-04-05T06:03:53.253Z,9.18
2023-04-05T06:04:55.909Z,8.68
2023-04-05T06:06:00.032Z,10.52
2023-04-05T06:07:03.212Z,7.65
2023-04-05T06:08:05.736Z,13.57
2023-04-05T06:09:08.378Z,8.60
2023-04-05T06:10:12.599Z,10.57
2023-04-05T06:11:21.824Z,8.20
2023-04-05T06:12:24.338Z,9.55
2023-04-05T06:13:26.976Z,11.30
2023-04-05T06:14:32.510Z,13.27
2023-04-05T06:15:35.141Z,7.35
2023-04-05T06:16:37.757Z,8.57
2023-04-05T06:17:42.756Z,9.27
2023-04-05T06:18:45.468Z,10.23
2023-04-05T06:19:48.112Z,10.23
2023-04-05T06:20:50.747Z,7.15
2023-04-05T06:21:53.153Z,10.02
2023-04-05T06:22:55.662Z,12.38
2023-04-05T06:23:58.433Z,8.02
2023-04-05T06:25:01.183Z,9.20
2023-04-05T06:26:03.942Z,9.38
2023-04-05T06:27:06.224Z,10.25
2023-04-05T06:28:08.863Z,12.90
2023-04-05T06:29:12.236Z,6.47
2023-04-05T06:30:15.157Z,9.02
2023-04-05T06:31:21.730Z,9.82
2023-04-05T06:32:24.281Z,7.32
2023-04-05T06:33:27.107Z,8.50
2023-04-05T06:34:29.899Z,6.05
2023-04-05T06:35:32.535Z,11.15
2023-04-05T06:36:35.155Z,6.97
2023-04-05T06:37:37.666Z,11.75
2023-04-05T06:38:40.084Z,6.75
2023-04-05T06:39:42.711Z,4.30
2023-04-05T06:40:45.229Z,7.60
2023-04-05T06:41:47.751Z,7.93
2023-04-05T06:42:50.387Z,4.20
2023-04-05T06:43:57.961Z,6.07
2023-04-05T06:45:00.489Z,6.03
2023-04-05T06:46:03.164Z,5.82
2023-04-05T06:47:05.874Z,7.15
2023-04-05T06:48:08.576Z,6.13
2023-04-05T06:49:11.162Z,4.60
2023-04-05T06:50:13.939Z,8.27
2023-04-05T06:51:16.560Z,6.22
2023-04-05T06:52:19.078Z,9.88
2023-04-05T06:53:21.499Z,6.45
2023-04-05T06:54:25.078Z,6.18
2023-04-05T06:55:27.778Z,7.05
2023-04-05T06:56:30.237Z,7.63
2023-04-05T06:57:32.762Z,9.10
2023-04-05T06:58:35.516Z,6.25
2023-04-05T06:59:37.932Z,6.22
2023-04-05T07:00:40.815Z,5.65
2023-04-05T07:01:43.367Z,5.13
2023-04-05T07:02:46.014Z,7.22
2023-04-05T07:03:48.491Z,10.77
2023-04-05T07:04:51.241Z,5.32
2023-04-05T07:05:59.359Z,5.43
2023-04-05T07:07:02.524Z,5.10
2023-04-05T07:08:05.167Z,8.20
2023-04-05T07:09:08.002Z,6.28
2023-04-05T07:10:10.926Z,5.10
2023-04-05T07:11:13.807Z,7.78
2023-04-05T07:12:16.333Z,6.43
2023-04-05T07:13:19.929Z,7.03
2023-04-05T07:14:22.453Z,4.72
2023-04-05T07:15:24.975Z,5.18
2023-04-05T07:16:27.642Z,7.20
2023-04-05T07:17:30.137Z,6.50
2023-04-05T07:18:32.676Z,5.95
2023-04-05T07:19:35.656Z,6.88
2023-04-05T07:20:38.418Z,3.10
2023-04-05T07:21:41.061Z,6.60
2023-04-05T07:22:43.696Z,5.20
2023-04-05T07:23:46.584Z,5.82
2023-04-05T07:24:49.292Z,8.00
2023-04-05T07:25:51.859Z,6.93
2023-04-05T07:26:54.397Z,6.78
2023-04-05T07:27:57.262Z,5.07
2023-04-05T07:28:59.787Z,8.75
2023-04-05T07:30:02.298Z,6.57
2023-04-05T07:31:06.904Z,5.80
2023-04-05T07:32:10.063Z,5.90
2023-04-05T07:33:13.006Z,5.18
2023-04-05T07:34:15.866Z,4.93
2023-04-05T07:35:18.382Z,6.55
2023-04-05T07:36:21.147Z,6.65
2023-04-05T07:37:23.798Z,6.70
2023-04-05T07:38:27.763Z,4.80
2023-04-05T07:39:30.270Z,5.45
2023-04-05T07:40:32.799Z,4.65
2023-04-05T07:41:38.312Z,5.25
2023-04-05T07:42:40.964Z,6.13
2023-04-05T07:43:43.488Z,4.95
2023-04-05T07:44:46.351Z,6.03
2023-04-05T07:45:48.877Z,8.15
2023-04-05T07:46:51.468Z,7.50
2023-04-05T07:47:53.938Z,5.85
2023-04-05T07:48:56.432Z,5.00
2023-04-05T07:49:59.491Z,5.00
2023-04-05T07:51:07.156Z,6.72
2023-04-05T07:52:09.752Z,7.20
2023-04-05T07:53:12.274Z,6.30
2023-04-05T07:54:14.919Z,4.50
2023-04-05T07:55:17.679Z,7.28
2023-04-05T07:56:20.206Z,5.30
2023-04-05T07:57:22.735Z,5.05
2023-04-05T07:58:25.976Z,7.82
2023-04-05T07:59:28.768Z,5.88
2023-04-05T08:00:31.242Z,4.05
2023-04-05T08:01:33.760Z,5.72
2023-04-05T08:02:36.465Z,4.35
2023-04-05T08:03:40.033Z,6.40
2023-04-05T08:04:42.899Z,4.18
2023-04-05T08:05:45.405Z,9.25
2023-04-05T08:06:48.041Z,9.43
2023-04-05T08:07:50.563Z,5.13
2023-04-05T08:08:53.217Z,5.28
2023-04-05T08:09:57.765Z,4.45
2023-04-05T08:11:03.534Z,6.03
2023-04-05T08:12:06.791Z,7.13
2023-04-05T08:13:09.299Z,6.90
2023-04-05T08:14:11.960Z,4.80
2023-04-05T08:15:14.463Z,9.23
2023-04-05T08:16:17.017Z,7.72
2023-04-05T08:17:20.327Z,7.32
2023-04-05T08:18:22.971Z,7.13
2023-04-05T08:19:25.611Z,7.30
2023-04-05T08:20:28.133Z,4.95
2023-04-05T08:21:30.654Z,7.65
2023-04-05T08:22:33.176Z,4.43
2023-04-05T08:23:35.829Z,7.50
2023-04-05T08:24:38.258Z,8.80
2023-04-05T08:25:42.550Z,5.03
2023-04-05T08:26:45.803Z,5.03
2023-04-05T08:27:48.301Z,4.05
2023-04-05T08:28:50.953Z,7.93
2023-04-05T08:29:53.461Z,6.32
2023-04-05T08:30:57.661Z,7.28
2023-04-05T08:32:00.365Z,5.72
2023-04-05T08:33:03.022Z,5.05
2023-04-05T08:34:08.235Z,5.30
2023-04-05T08:35:10.756Z,4.63
2023-04-05T08:36:13.272Z,6.32
2023-04-05T08:37:15.901Z,5.55
2023-04-05T08:38:18.422Z,3.10
2023-04-05T08:39:21.305Z,5.55
2023-04-05T08:40:46.267Z,5.10
2023-04-05T08:42:18.552Z,4.97
2023-04-05T08:43:34.027Z,5.80
2023-04-05T08:44:37.877Z,5.65
2023-04-05T08:45:50.031Z,6.63
2023-04-05T08:46:56.112Z,6.10
2023-04-05T08:47:59.161Z,3.30
2023-04-05T08:49:08.980Z,5.00
2023-04-05T08:50:13.645Z,7.78
2023-04-05T08:51:22.763Z,5.15
2023-04-05T08:52:25.758Z,5.60
2023-04-05T08:53:28.401Z,6.28
2023-04-05T08:54:31.041Z,5.32
2023-04-05T08:55:34.171Z,5.47
2023-04-05T08:56:37.049Z,3.03
2023-04-05T08:57:44.623Z,7.20
2023-04-05T08:58:54.604Z,6.93
2023-04-05T08:59:59.243Z,4.20
2023-04-05T09:01:02.761Z,3.22
2023-04-05T09:02:18.008Z,3.03
2023-04-05T09:03:23.584Z,7.03
2023-04-05T09:04:31.410Z,2.72
2023-04-05T09:05:34.307Z,4.70
2023-04-05T09:06:37.286Z,6.53
2023-04-05T09:07:42.092Z,3.65
2023-04-05T09:08:44.493Z,6.50
2023-04-05T09:09:52.653Z,2.83
2023-04-05T09:10:55.176Z,4.38
2023-04-05T09:11:57.838Z,4.50
2023-04-05T09:13:00.574Z,4.85
2023-04-05T09:14:05.145Z,7.93
2023-04-05T09:15:08.503Z,5.57
2023-04-05T09:16:11.497Z,3.70
2023-04-05T09:17:17.278Z,5.15
2023-04-05T09:18:26.785Z,3.60
2023-04-05T09:19:30.463Z,3.88
2023-04-05T09:20:32.980Z,4.57
2023-04-05T09:22:07.658Z,6.00
2023-04-05T09:23:14.272Z,5.97
2023-04-05T09:24:31.059Z,4.32
2023-04-05T09:25:39.481Z,5.82
2023-04-05T09:26:41.988Z,4.22
2023-04-05T09:27:59.265Z,4.70
2023-04-05T09:29:01.796Z,3.40
2023-04-05T09:30:21.945Z,3.22
2023-04-05T09:31:37.457Z,3.47
2023-04-05T09:33:49.430Z,6.72
2023-04-05T09:34:54.232Z,3.88
2023-04-05T09:36:06.988Z,5.03
2023-04-05T09:37:18.348Z,3.10
2023-04-05T09:38:44.279Z,3.78
2023-04-05T09:39:49.827Z,5.90
2023-04-05T09:40:52.557Z,3.60
2023-04-05T09:42:15.874Z,4.43
2023-04-05T09:43:37.556Z,5.05
2023-04-05T09:45:03.143Z,4.50
2023-04-05T09:46:30.507Z,4.22
2023-04-05T09:47:36.797Z,4.90
2023-04-05T09:48:49.684Z,3.13
2023-04-05T09:49:52.199Z,3.43
2023-04-05T09:51:12.646Z,2.42
2023-04-05T09:52:29.640Z,3.67
2023-04-05T09:53:32.161Z,3.63
2023-04-05T09:54:42.246Z,5.97
2023-04-05T09:55:44.880Z,2.88
2023-04-05T09:56:57.711Z,3.58
2023-04-05T09:58:01.945Z,4.35
2023-04-05T09:59:11.049Z,6.07
2023-04-05T10:00:21.613Z,5.38
2023-04-05T10:01:28.856Z,4.15
2023-04-05T10:02:40.897Z,4.15
2023-04-05T10:03:50.225Z,3.95
2023-04-05T10:04:52.804Z,3.92
2023-04-05T10:05:58.334Z,4.78
2023-04-05T10:07:00.879Z,3.38
2023-04-05T10:08:03.512Z,4.88
2023-04-05T10:09:07.339Z,5.65
2023-04-05T10:10:12.700Z,3.90
2023-04-05T10:11:18.569Z,3.63
2023-04-05T10:12:28.141Z,3.17
2023-04-05T10:13:31.212Z,4.93
2023-04-05T10:14:33.732Z,4.45
2023-04-05T10:15:36.246Z,3.88
2023-04-05T10:16:49.608Z,3.47
2023-04-05T10:18:00.723Z,3.85
2023-04-05T10:19:13.085Z,4.85
2023-04-05T10:20:18.013Z,2.00
2023-04-05T10:21:23.894Z,5.80
2023-04-05T10:22:44.537Z,2.95
2023-04-05T10:24:11.174Z,4.25
2023-04-05T10:25:26.412Z,4.68
2023-04-05T10:26:49.227Z,3.20
2023-04-05T10:27:59.548Z,4.22
2023-04-05T10:29:10.332Z,3.63
2023-04-05T10:30:13.355Z,4.75
2023-04-05T10:31:41.144Z,4.32
2023-04-05T10:33:07.080Z,3.05
2023-04-05T10:34:24.758Z,3.30
2023-04-05T10:35:50.086Z,4.63
2023-04-05T10:37:02.428Z,3.97
2023-04-05T10:38:17.780Z,4.18
2023-04-05T10:39:34.874Z,4.10
2023-04-05T10:40:37.973Z,4.68
2023-04-05T10:41:47.316Z,2.60
2023-04-05T10:42:50.430Z,5.25
2023-04-05T10:43:57.779Z,3.53
2023-04-05T10:45:04.902Z,3.58
2023-04-05T10:46:08.663Z,2.83
2023-04-05T10:47:15.634Z,4.35
2023-04-05T10:48:51.509Z,1.77
2023-04-05T10:49:57.534Z,2.13
2023-04-05T10:51:00.746Z,3.78
2023-04-05T10:52:04.391Z,4.03
2023-04-05T10:53:09.510Z,2.70
2023-04-05T10:54:12.046Z,3.97
2023-04-05T10:55:16.736Z,4.30
2023-04-05T10:56:20.968Z,5.70
2023-04-05T10:57:24.464Z,7.53
2023-04-05T10:58:27.886Z,3.13
2023-04-05T10:59:31.242Z,4.03
2023-04-05T11:00:34.429Z,7.18
2023-04-05T11:01:38.936Z,3.88
2023-04-05T11:02:41.977Z,4.20
2023-04-05T11:03:52.128Z,3.13
2023-04-05T11:04:56.976Z,2.97
2023-04-05T11:06:21.040Z,2.35
2023-04-05T11:07:23.803Z,4.03
2023-04-05T11:08:26.324Z,4.28
2023-04-05T11:09:28.966Z,3.88
2023-04-05T11:10:34.282Z,3.28
2023-04-05T11:11:41.235Z,5.82
2023-04-05T11:12:49.251Z,3.15
2023-04-05T11:13:56.447Z,3.05
2023-04-05T11:15:30.125Z,5.38
2023-04-05T11:16:41.012Z,2.17
2023-04-05T11:17:43.652Z,4.25
2023-04-05T11:18:52.617Z,5.82
2023-04-05T11:20:05.625Z,3.03
2023-04-05T11:21:08.585Z,2.22
2023-04-05T11:22:13.028Z,2.47
2023-04-05T11:23:18.922Z,3.35
2023-04-05T11:24:21.538Z,4.82
2023-04-05T11:25:25.258Z,4.25
2023-04-05T11:26:49.019Z,3.88
2023-04-05T11:28:01.260Z,2.42
2023-04-05T11:29:03.780Z,2.13
2023-04-05T11:30:07.025Z,4.03
2023-04-05T11:31:18.523Z,2.05
2023-04-05T11:32:22.079Z,2.80
2023-04-05T11:33:56.952Z,2.25
2023-04-05T11:35:13.288Z,2.55
2023-04-05T11:36:31.993Z,2.78
2023-04-05T11:37:53.233Z,2.33
2023-04-05T11:39:21.219Z,3.97
2023-04-05T11:40:31.635Z,3.78
2023-04-05T11:41:34.513Z,9.27
2023-04-05T11:42:37.156Z,5.15
2023-04-05T11:43:39.676Z,2.10
2023-04-05T11:44:45.187Z,2.55
2023-04-05T11:45:48.674Z,6.82
2023-04-05T11:46:52.492Z,1.45
2023-04-05T11:47:55.054Z,4.22
2023-04-05T11:48:57.794Z,14.25
2023-04-05T11:50:00.318Z,3.63
2023-04-05T11:51:10.041Z,2.30
2023-04-05T11:52:15.581Z,4.57
2023-04-05T11:53:18.564Z,4.03
2023-04-05T11:54:31.158Z,1.25
2023-04-05T11:55:33.682Z,4.55
2023-04-05T11:56:36.439Z,3.10
2023-04-05T11:57:39.080Z,2.90
2023-04-05T11:58:42.751Z,5.20
2023-04-05T11:59:45.567Z,2.05
2023-04-05T12:01:00.818Z,3.75
2023-04-05T12:02:09.326Z,1.55
2023-04-05T12:03:18.129Z,2.72
2023-04-05T12:04:20.610Z,5.15
2023-04-05T12:05:23.291Z,3.55
2023-04-05T12:06:26.840Z,2.53
2023-04-05T12:07:32.662Z,3.75
2023-04-05T12:08:49.915Z,3.42
2023-04-05T12:10:14.064Z,5.78
2023-04-05T12:11:23.852Z,2.45
2023-04-05T12:12:26.368Z,2.80
2023-04-05T12:13:30.589Z,9.18
2023-04-05T12:14:33.448Z,2.35
2023-04-05T12:15:43.371Z,5.00
2023-04-05T12:16:50.427Z,3.25
2023-04-05T12:17:54.763Z,2.92
2023-04-05T12:18:59.504Z,3.33
2023-04-05T12:20:02.132Z,3.20
2023-04-05T12:21:09.606Z,2.33
2023-04-05T12:22:12.218Z,3.55
2023-04-05T12:23:14.733Z,2.65
2023-04-05T12:24:17.385Z,4.38
2023-04-05T12:25:20.995Z,4.13
2023-04-05T12:26:24.094Z,4.28
2023-04-05T12:27:26.861Z,3.72
2023-04-05T12:28:56.476Z,2.22
2023-04-05T12:30:20.311Z,4.05
2023-04-05T12:31:38.727Z,3.83
2023-04-05T12:32:52.650Z,3.55
2023-04-05T12:33:59.514Z,4.57
2023-04-05T12:35:05.742Z,2.72
2023-04-05T12:36:11.643Z,2.00
2023-04-05T12:37:14.144Z,2.03
2023-04-05T12:38:17.665Z,3.20
2023-04-05T12:39:22.108Z,3.40
2023-04-05T12:40:25.119Z,1.83
2023-04-05T12:41:31.674Z,1.77
2023-04-05T12:42:37.785Z,2.38
2023-04-05T12:43:42.128Z,5.07
2023-04-05T12:44:44.630Z,2.00
2023-04-05T12:45:50.471Z,3.75
2023-04-05T12:47:00.831Z,3.28
2023-04-05T12:48:03.462Z,4.15
2023-04-05T12:49:06.016Z,2.95
2023-04-05T12:50:16.004Z,2.88
2023-04-05T12:51:18.472Z,3.13
2023-04-05T12:52:23.872Z,4.05
2023-04-05T12:53:28.848Z,2.72
2023-04-05T12:54:32.432Z,3.17
2023-04-05T12:55:44.514Z,4.30
2023-04-05T12:56:49.794Z,3.47
2023-04-05T12:58:01.440Z,3.28
2023-04-05T12:59:06.215Z,3.28
2023-04-05T13:00:11.097Z,5.40
2023-04-05T13:01:13.780Z,1.73
2023-04-05T13:02:16.237Z,3.85
2023-04-05T13:03:21.215Z,4.32
2023-04-05T13:04:26.043Z,3.92
2023-04-05T13:05:30.495Z,2.88
2023-04-05T13:06:33.011Z,5.30
2023-04-05T13:07:35.529Z,5.35
2023-04-05T13:08:38.062Z,4.03
2023-04-05T13:09:40.686Z,3.13
2023-04-05T13:10:43.206Z,4.05
2023-04-05T13:11:45.752Z,3.22
2023-04-05T13:12:48.975Z,3.10
2023-04-05T13:13:51.495Z,2.10
2023-04-05T13:14:54.013Z,4.13
2023-04-05T13:15:56.742Z,3.35
2023-04-05T13:16:59.175Z,2.05
2023-04-05T13:18:01.945Z,2.72
2023-04-05T13:19:04.464Z,2.38
2023-04-05T13:20:07.841Z,3.78
2023-04-05T13:21:11.454Z,2.92
2023-04-05T13:22:13.937Z,3.63
2023-04-05T13:23:16.341Z,2.55
2023-04-05T13:24:18.859Z,3.17
2023-04-05T13:25:22.463Z,2.92
2023-04-05T13:26:25.000Z,3.22
2023-04-05T13:27:27.500Z,4.25
2023-04-05T13:28:30.031Z,4.13
2023-04-05T13:29:32.444Z,4.97
2023-04-05T13:30:34.947Z,4.95
2023-04-05T13:31:37.536Z,4.43
2023-04-05T13:32:41.534Z,4.03
2023-04-05T13:33:44.184Z,6.72
2023-04-05T13:34:46.708Z,5.15
2023-04-05T13:35:49.259Z,3.13
2023-04-05T13:36:51.757Z,2.95
2023-04-05T13:37:54.753Z,3.15
2023-04-05T13:38:57.271Z,3.47
2023-04-05T13:39:59.792Z,7.50
2023-04-05T13:41:02.311Z,3.22
2023-04-05T13:42:05.323Z,2.10
2023-04-05T13:43:08.325Z,2.63
2023-04-05T13:44:10.842Z,5.15
2023-04-05T13:45:13.474Z,6.93
2023-04-05T13:46:16.151Z,3.28
2023-04-05T13:47:18.635Z,3.22
2023-04-05T13:48:21.156Z,2.70
2023-04-05T13:49:23.557Z,3.30
2023-04-05T13:50:26.080Z,6.43
2023-04-05T13:51:34.366Z,4.10
2023-04-05T13:52:37.655Z,2.97
2023-04-05T13:53:40.475Z,3.10
2023-04-05T13:54:43.010Z,2.65
2023-04-05T13:55:45.646Z,3.00
2023-04-05T13:56:48.287Z,5.22
2023-04-05T13:57:50.813Z,3.83
2023-04-05T13:58:53.274Z,2.40
2023-04-05T13:59:55.843Z,2.72
2023-04-05T14:00:58.481Z,2.88
2023-04-05T14:02:01.070Z,3.60
2023-04-05T14:03:03.733Z,2.95
2023-04-05T14:04:06.287Z,2.42
2023-04-05T14:05:09.176Z,3.88
2023-04-05T14:06:11.683Z,3.95
2023-04-05T14:07:14.211Z,2.97
2023-04-05T14:08:16.728Z,2.17
2023-04-05T14:09:19.125Z,3.08
2023-04-05T14:10:21.803Z,2.10
2023-04-05T14:11:24.526Z,3.30
2023-04-05T14:12:27.054Z,3.08
2023-04-05T14:13:29.570Z,1.92
2023-04-05T14:14:31.974Z,1.30
2023-04-05T14:15:34.971Z,3.80
2023-04-05T14:16:38.274Z,4.45
2023-04-05T14:17:41.091Z,2.80
2023-04-05T14:18:43.853Z,3.53
2023-04-05T14:19:46.371Z,4.88
2023-04-05T14:20:48.893Z,2.97
2023-04-05T14:21:51.652Z,2.70
2023-04-05T14:22:54.303Z,1.88
2023-04-05T14:23:58.039Z,2.78
2023-04-05T14:25:00.548Z,2.30
2023-04-05T14:26:03.381Z,3.85
2023-04-05T14:27:06.294Z,1.90
2023-04-05T14:28:08.939Z,3.58
2023-04-05T14:29:11.701Z,1.55
2023-04-05T14:30:14.340Z,4.13
2023-04-05T14:31:17.185Z,3.88
2023-04-05T14:32:19.745Z,5.18
2023-04-05T14:33:23.952Z,7.57
2023-04-05T14:34:26.341Z,4.88
2023-04-05T14:35:29.032Z,2.90
2023-04-05T14:36:31.623Z,2.15
2023-04-05T14:37:34.159Z,3.45
2023-04-05T14:38:36.784Z,5.00